createdAt,value
2017-10-27T00:00:03.926Z,972.7
2017-10-27T00:01:05.681Z,972.7
2017-10-27T00:02:16.404Z,972.7
2017-10-27T00:03:17.760Z,972.8
2017-10-27T00:04:19.561Z,972.8
2017-10-27T00:05:21.313Z,972.8
2017-10-27T00:06:23.028Z,972.8
2017-10-27T00:07:24.837Z,972.8
2017-10-27T00:08:26.571Z,972.8
2017-10-27T00:09:28.289Z,972.9
2017-10-27T00:10:30.033Z,972.8
2017-10-27T00:11:31.754Z,972.8
2017-10-27T00:12:33.506Z,972.7
2017-10-27T00:13:35.225Z,972.7
2017-10-27T00:14:36.960Z,972.6
2017-10-27T00:15:38.701Z,972.7
2017-10-27T00:16:40.399Z,972.8
2017-10-27T00:17:42.097Z,972.8
2017-10-27T00:18:43.774Z,972.7
2017-10-27T00:19:45.447Z,972.7
2017-10-27T00:20:47.103Z,972.7
2017-10-27T00:21:48.794Z,972.7
2017-10-27T00:22:50.450Z,972.8
2017-10-27T00:23:52.133Z,972.7
2017-10-27T00:24:53.794Z,972.7
2017-10-27T00:25:55.464Z,972.7
2017-10-27T00:26:57.175Z,972.6
2017-10-27T00:27:58.867Z,972.6
2017-10-27T00:29:00.534Z,972.7
2017-10-27T00:30:02.317Z,972.7
2017-10-27T00:31:04.048Z,972.6
2017-10-27T00:32:05.735Z,972.6
2017-10-27T00:33:07.463Z,972.7
2017-10-27T00:34:09.227Z,972.6
2017-10-27T00:35:10.991Z,972.6
2017-10-27T00:36:12.686Z,972.6
2017-10-27T00:37:14.385Z,972.6
2017-10-27T00:38:16.086Z,972.6
2017-10-27T00:39:17.786Z,972.6
2017-10-27T00:40:19.503Z,972.6
2017-10-27T00:41:21.205Z,972.6
2017-10-27T00:42:22.884Z,972.5
2017-10-27T00:43:24.549Z,972.5
2017-10-27T00:44:26.248Z,972.6
2017-10-27T00:45:27.929Z,972.6
2017-10-27T00:46:29.591Z,972.6
2017-10-27T00:47:31.276Z,972.7
2017-10-27T00:48:32.926Z,972.6
2017-10-27T00:49:34.576Z,972.7
2017-10-27T00:50:36.231Z,972.7
2017-10-27T00:51:37.883Z,972.7
2017-10-27T00:52:39.553Z,972.7
2017-10-27T00:53:41.211Z,972.7
2017-10-27T00:54:42.876Z,972.6
2017-10-27T00:55:44.535Z,972.6
2017-10-27T00:56:46.189Z,972.6
2017-10-27T00:57:47.849Z,972.6
2017-10-27T00:58:49.516Z,972.6
2017-10-27T00:59:51.171Z,972.7
2017-10-27T01:00:52.838Z,972.7
2017-10-27T01:01:54.493Z,972.7
2017-10-27T01:02:56.158Z,972.7
2017-10-27T01:03:57.822Z,972.6
2017-10-27T01:04:59.476Z,972.6
2017-10-27T01:06:01.192Z,972.6
2017-10-27T01:07:02.843Z,972.5
2017-10-27T01:08:04.511Z,972.6
2017-10-27T01:09:06.173Z,972.6
2017-10-27T01:10:07.826Z,972.5
2017-10-27T01:11:09.498Z,972.5
2017-10-27T01:12:11.145Z,972.5
2017-10-27T01:13:12.798Z,972.6
2017-10-27T01:14:14.475Z,972.6
2017-10-27T01:15:16.118Z,972.6
2017-10-27T01:16:17.770Z,972.5
2017-10-27T01:17:19.437Z,972.5
2017-10-27T01:18:21.095Z,972.6
2017-10-27T01:19:22.756Z,972.6
2017-10-27T01:20:24.489Z,972.6
2017-10-27T01:21:26.138Z,972.6
2017-10-27T01:22:27.801Z,972.7
2017-10-27T01:23:29.464Z,972.6
2017-10-27T01:24:31.126Z,972.6
2017-10-27T01:25:32.782Z,972.6
2017-10-27T01:26:34.440Z,972.5
2017-10-27T01:27:36.104Z,972.5
2017-10-27T01:28:37.766Z,972.5
2017-10-27T01:29:39.423Z,972.5
2017-10-27T01:30:41.084Z,972.5
2017-10-27T01:31:42.739Z,972.4
2017-10-27T01:32:44.396Z,972.4
2017-10-27T01:33:46.108Z,972.4
2017-10-27T01:34:47.741Z,972.4
2017-10-27T01:35:49.411Z,972.4
2017-10-27T01:36:51.068Z,972.4
2017-10-27T01:37:52.732Z,972.4
2017-10-27T01:38:54.398Z,972.4
2017-10-27T01:39:56.054Z,972.4
2017-10-27T01:40:57.714Z,972.4
2017-10-27T01:41:59.368Z,972.3
2017-10-27T01:43:01.026Z,972.3
2017-10-27T01:44:02.687Z,972.3
2017-10-27T01:45:04.345Z,972.2
2017-10-27T01:46:06.010Z,972.2
2017-10-27T01:47:07.661Z,972.2
2017-10-27T01:48:09.316Z,972.2
2017-10-27T01:49:10.978Z,972.3
2017-10-27T01:50:12.635Z,972.2
2017-10-27T01:51:14.311Z,972.2
2017-10-27T01:52:15.961Z,972.2
2017-10-27T01:53:17.619Z,972.2
2017-10-27T01:54:19.298Z,972.2
2017-10-27T01:55:20.951Z,972.1
2017-10-27T02:01:40.053Z,972.0
2017-10-27T02:02:41.702Z,971.9
2017-10-27T02:03:43.357Z,971.9
2017-10-27T02:04:45.013Z,972.0
2017-10-27T02:05:46.671Z,972.0
2017-10-27T02:06:48.322Z,972.0
2017-10-27T02:07:49.977Z,972.0
2017-10-27T02:08:51.682Z,972.0
2017-10-27T02:09:53.333Z,972.0
2017-10-27T02:10:54.995Z,971.9
2017-10-27T02:11:56.649Z,971.9
2017-10-27T02:12:58.302Z,971.9
2017-10-27T02:13:59.959Z,971.9
2017-10-27T02:15:01.617Z,971.9
2017-10-27T02:16:03.273Z,971.8
2017-10-27T02:17:04.940Z,971.8
2017-10-27T02:18:06.602Z,971.8
2017-10-27T02:19:08.254Z,971.9
2017-10-27T02:20:09.916Z,971.9
2017-10-27T02:21:11.570Z,971.8
2017-10-27T02:22:13.230Z,971.8
2017-10-27T02:23:14.889Z,971.8
2017-10-27T02:24:16.545Z,971.9
2017-10-27T02:25:18.198Z,971.8
2017-10-27T02:26:19.852Z,971.9
2017-10-27T02:27:21.516Z,971.9
2017-10-27T02:28:23.172Z,971.9
2017-10-27T02:29:24.826Z,971.9
2017-10-27T02:30:26.488Z,971.9
2017-10-27T02:31:28.146Z,971.8
2017-10-27T02:32:29.807Z,971.8
2017-10-27T02:33:31.461Z,971.8
2017-10-27T02:34:33.128Z,971.8
2017-10-27T02:35:34.788Z,971.9
2017-10-27T02:36:36.450Z,971.9
2017-10-27T02:37:38.103Z,971.9
2017-10-27T02:38:39.756Z,971.9
2017-10-27T02:39:41.475Z,972.0
2017-10-27T02:40:43.133Z,971.9
2017-10-27T02:41:44.782Z,971.9
2017-10-27T02:42:46.427Z,971.9
2017-10-27T02:43:48.087Z,971.9
2017-10-27T02:44:49.744Z,971.9
2017-10-27T02:45:51.416Z,972.0
2017-10-27T02:46:53.064Z,972.0
2017-10-27T02:47:54.727Z,971.9
2017-10-27T02:48:56.391Z,972.0
2017-10-27T02:49:58.052Z,971.9
2017-10-27T02:50:59.715Z,971.9
2017-10-27T02:52:01.374Z,971.9
2017-10-27T02:53:03.022Z,971.9
2017-10-27T02:54:04.684Z,972.0
2017-10-27T02:55:06.344Z,972.0
2017-10-27T02:56:08.000Z,972.0
2017-10-27T02:57:09.656Z,972.0
2017-10-27T02:58:11.298Z,972.1
2017-10-27T02:59:12.970Z,972.1
2017-10-27T03:00:14.618Z,972.1
2017-10-27T03:01:16.289Z,972.1
2017-10-27T03:02:17.925Z,972.1
2017-10-27T03:03:19.578Z,972.1
2017-10-27T03:04:21.235Z,972.1
2017-10-27T03:05:22.885Z,972.1
2017-10-27T03:06:24.548Z,972.1
2017-10-27T03:07:26.736Z,972.1
2017-10-27T03:08:28.393Z,972.1
2017-10-27T03:09:30.057Z,972.1
2017-10-27T03:10:31.714Z,972.1
2017-10-27T03:11:33.480Z,972.1
2017-10-27T03:12:35.109Z,972.0
2017-10-27T03:13:36.769Z,972.0
2017-10-27T03:14:38.418Z,972.0
2017-10-27T03:15:40.072Z,972.0
2017-10-27T03:16:41.717Z,972.0
2017-10-27T03:17:43.372Z,971.9
2017-10-27T03:18:45.032Z,972.0
2017-10-27T03:19:46.684Z,972.0
2017-10-27T03:20:48.349Z,972.0
2017-10-27T03:21:49.997Z,972.0
2017-10-27T03:22:51.655Z,972.0
2017-10-27T03:23:53.299Z,972.1
2017-10-27T03:24:54.957Z,971.9
2017-10-27T03:25:56.606Z,972.0
2017-10-27T03:26:58.264Z,972.0
2017-10-27T03:27:59.927Z,972.0
2017-10-27T03:29:01.575Z,972.1
2017-10-27T03:30:03.238Z,972.1
2017-10-27T03:31:04.897Z,972.2
2017-10-27T03:32:06.550Z,972.2
2017-10-27T03:33:08.210Z,972.3
2017-10-27T03:34:09.909Z,972.2
2017-10-27T03:35:11.558Z,972.3
2017-10-27T03:36:13.232Z,972.3
2017-10-27T03:37:14.909Z,972.2
2017-10-27T03:38:16.567Z,972.3
2017-10-27T03:39:18.217Z,972.3
2017-10-27T03:40:19.874Z,972.3
2017-10-27T03:41:21.531Z,972.4
2017-10-27T03:42:23.199Z,972.3
2017-10-27T03:43:24.834Z,972.3
2017-10-27T03:44:26.501Z,972.3
2017-10-27T03:45:28.159Z,972.3
2017-10-27T03:46:29.806Z,972.3
2017-10-27T03:47:31.455Z,972.3
2017-10-27T03:48:33.112Z,972.3
2017-10-27T03:49:34.761Z,972.4
2017-10-27T03:50:36.411Z,972.4
2017-10-27T03:51:38.064Z,972.4
2017-10-27T03:52:39.714Z,972.4
2017-10-27T03:53:41.371Z,972.4
2017-10-27T03:54:43.028Z,972.4
2017-10-27T03:55:44.696Z,972.5
2017-10-27T03:56:46.349Z,972.5
2017-10-27T03:57:48.002Z,972.5
2017-10-27T03:58:49.652Z,972.5
2017-10-27T03:59:51.290Z,972.5
2017-10-27T04:00:52.941Z,972.5
2017-10-27T04:01:54.593Z,972.5
2017-10-27T04:02:56.246Z,972.5
2017-10-27T04:03:57.892Z,972.5
2017-10-27T04:04:59.552Z,972.5
2017-10-27T04:06:01.217Z,972.5
2017-10-27T04:07:02.845Z,972.5
2017-10-27T04:08:04.494Z,972.5
2017-10-27T04:09:06.149Z,972.5
2017-10-27T04:10:07.807Z,972.5
2017-10-27T04:11:09.671Z,972.5
2017-10-27T04:12:11.346Z,972.5
2017-10-27T04:13:13.025Z,972.5
2017-10-27T04:14:14.682Z,972.4
2017-10-27T04:15:16.338Z,972.4
2017-10-27T04:16:17.988Z,972.4
2017-10-27T04:17:19.644Z,972.4
2017-10-27T04:18:21.314Z,972.4
2017-10-27T04:19:22.959Z,972.4
2017-10-27T04:20:24.615Z,972.4
2017-10-27T04:21:26.265Z,972.5
2017-10-27T04:22:27.912Z,972.5
2017-10-27T04:23:29.573Z,972.5
2017-10-27T04:24:31.229Z,972.5
2017-10-27T04:25:32.888Z,972.5
2017-10-27T04:26:34.545Z,972.5
2017-10-27T04:27:36.217Z,972.5
2017-10-27T04:28:37.865Z,972.5
2017-10-27T04:29:39.523Z,972.6
2017-10-27T04:30:41.181Z,972.5
2017-10-27T04:31:42.827Z,972.5
2017-10-27T04:32:44.480Z,972.5
2017-10-27T04:33:46.158Z,972.5
2017-10-27T04:34:47.812Z,972.6
2017-10-27T04:35:49.476Z,972.4
2017-10-27T04:36:51.125Z,972.4
2017-10-27T04:37:52.780Z,972.3
2017-10-27T04:38:54.437Z,972.3
2017-10-27T04:39:56.093Z,972.3
2017-10-27T04:40:57.737Z,972.4
2017-10-27T04:41:59.387Z,972.4
2017-10-27T04:43:01.053Z,972.4
2017-10-27T04:44:02.702Z,972.4
2017-10-27T04:45:04.357Z,972.5
2017-10-27T04:46:06.010Z,972.5
2017-10-27T04:47:07.668Z,972.4
2017-10-27T04:48:09.314Z,972.5
2017-10-27T04:49:10.964Z,972.4
2017-10-27T04:50:12.613Z,972.5
2017-10-27T04:51:14.274Z,972.5
2017-10-27T04:52:15.929Z,972.5
2017-10-27T04:53:17.577Z,972.5
2017-10-27T04:54:19.237Z,972.5
2017-10-27T04:55:20.878Z,972.4
2017-10-27T04:56:22.538Z,972.5
2017-10-27T04:57:24.194Z,972.6
2017-10-27T04:58:25.856Z,972.6
2017-10-27T04:59:27.516Z,972.6
2017-10-27T05:00:29.174Z,972.6
2017-10-27T05:01:30.824Z,972.6
2017-10-27T05:02:32.472Z,972.6
2017-10-27T05:03:34.168Z,972.5
2017-10-27T05:04:35.884Z,972.6
2017-10-27T05:05:37.548Z,972.6
2017-10-27T05:06:39.200Z,972.6
2017-10-27T05:07:40.880Z,972.6
2017-10-27T05:08:42.541Z,972.6
2017-10-27T05:09:44.203Z,972.6
2017-10-27T05:10:45.877Z,972.6
2017-10-27T05:11:47.569Z,972.6
2017-10-27T05:12:49.237Z,972.6
2017-10-27T05:13:50.924Z,972.6
2017-10-27T05:14:52.606Z,972.5
2017-10-27T05:15:54.271Z,972.6
2017-10-27T05:16:55.923Z,972.6
2017-10-27T05:17:57.572Z,972.5
2017-10-27T05:18:59.299Z,972.6
2017-10-27T05:20:00.967Z,972.6
2017-10-27T05:21:02.637Z,972.6
2017-10-27T05:22:04.330Z,972.5
2017-10-27T05:23:05.989Z,972.5
2017-10-27T05:24:07.707Z,972.6
2017-10-27T05:25:09.378Z,972.6
2017-10-27T05:26:11.066Z,972.6
2017-10-27T05:27:12.755Z,972.6
2017-10-27T05:28:14.407Z,972.6
2017-10-27T05:29:16.122Z,972.7
2017-10-27T05:30:17.829Z,972.7
2017-10-27T05:31:19.487Z,972.6
2017-10-27T05:32:21.180Z,972.7
2017-10-27T05:33:22.837Z,972.7
2017-10-27T05:34:24.517Z,972.7
2017-10-27T05:35:26.201Z,972.7
2017-10-27T05:36:27.960Z,972.7
2017-10-27T05:37:29.611Z,972.7
2017-10-27T05:38:31.270Z,972.7
2017-10-27T05:39:32.953Z,972.9
2017-10-27T05:40:34.598Z,972.8
2017-10-27T05:41:36.260Z,972.7
2017-10-27T05:42:37.925Z,972.8
2017-10-27T05:43:39.558Z,972.8
2017-10-27T05:44:41.211Z,972.7
2017-10-27T05:45:42.906Z,972.7
2017-10-27T05:46:44.556Z,972.7
2017-10-27T05:47:46.224Z,972.7
2017-10-27T05:48:47.871Z,972.7
2017-10-27T05:49:49.522Z,972.7
2017-10-27T05:50:51.188Z,972.8
2017-10-27T05:51:52.868Z,972.8
2017-10-27T05:52:54.521Z,972.8
2017-10-27T05:53:56.172Z,972.8
2017-10-27T05:54:57.842Z,972.8
2017-10-27T06:01:11.421Z,972.8
2017-10-27T06:02:13.075Z,972.8
2017-10-27T06:03:14.766Z,972.9
2017-10-27T06:04:16.435Z,973.0
2017-10-27T06:05:18.114Z,973.0
2017-10-27T06:06:19.767Z,973.0
2017-10-27T06:07:21.430Z,973.0
2017-10-27T06:08:23.083Z,973.1
2017-10-27T06:09:24.734Z,973.1
2017-10-27T06:10:26.390Z,973.1
2017-10-27T06:11:28.085Z,973.1
2017-10-27T06:12:29.734Z,973.1
2017-10-27T06:13:31.419Z,973.2
2017-10-27T06:14:33.077Z,973.1
2017-10-27T06:15:34.732Z,973.1
2017-10-27T06:16:36.438Z,973.1
2017-10-27T06:17:38.112Z,973.2
2017-10-27T06:18:39.812Z,973.2
2017-10-27T06:19:41.464Z,973.2
2017-10-27T06:20:43.132Z,973.2
2017-10-27T06:21:44.791Z,973.2
2017-10-27T06:22:46.451Z,973.3
2017-10-27T06:23:48.102Z,973.2
2017-10-27T06:24:49.825Z,973.2
2017-10-27T06:25:51.493Z,973.2
2017-10-27T06:26:53.264Z,973.3
2017-10-27T06:27:54.920Z,973.4
2017-10-27T06:28:56.575Z,973.3
2017-10-27T06:29:58.233Z,973.3
2017-10-27T06:30:59.936Z,973.4
2017-10-27T06:32:01.601Z,973.3
2017-10-27T06:33:03.357Z,973.4
2017-10-27T06:34:05.010Z,973.5
2017-10-27T06:35:06.667Z,973.5
2017-10-27T06:36:08.343Z,973.5
2017-10-27T06:37:09.996Z,973.5
2017-10-27T06:38:11.653Z,973.6
2017-10-27T06:39:13.305Z,973.6
2017-10-27T06:40:14.988Z,973.6
2017-10-27T06:41:16.651Z,973.6
2017-10-27T06:42:18.315Z,973.7
2017-10-27T06:43:19.969Z,973.7
2017-10-27T06:44:21.637Z,973.6
2017-10-27T06:45:23.309Z,973.7
2017-10-27T06:46:24.963Z,973.7
2017-10-27T06:47:26.620Z,973.5
2017-10-27T06:48:28.364Z,973.6
2017-10-27T06:49:30.033Z,973.5
2017-10-27T06:50:31.695Z,973.5
2017-10-27T06:51:33.379Z,973.5
2017-10-27T06:52:35.055Z,973.6
2017-10-27T06:53:36.757Z,973.6
2017-10-27T06:54:38.418Z,973.6
2017-10-27T06:55:40.078Z,973.6
2017-10-27T06:56:41.741Z,973.6
2017-10-27T06:57:43.400Z,973.7
2017-10-27T06:58:45.063Z,973.8
2017-10-27T06:59:46.729Z,973.8
2017-10-27T07:00:48.396Z,973.8
2017-10-27T07:01:50.090Z,973.7
2017-10-27T07:02:51.756Z,973.7
2017-10-27T07:03:53.424Z,973.8
2017-10-27T07:04:55.098Z,973.8
2017-10-27T07:05:56.754Z,973.8
2017-10-27T07:06:58.440Z,973.9
2017-10-27T07:08:00.135Z,973.8
2017-10-27T07:09:01.794Z,973.9
2017-10-27T07:10:03.449Z,973.9
2017-10-27T07:11:05.114Z,974.0
2017-10-27T07:12:06.771Z,974.0
2017-10-27T07:13:08.441Z,974.1
2017-10-27T07:14:10.120Z,974.0
2017-10-27T07:15:11.843Z,974.2
2017-10-27T07:16:13.519Z,974.1
2017-10-27T07:17:15.187Z,974.2
2017-10-27T07:18:16.841Z,974.2
2017-10-27T07:19:18.506Z,974.2
2017-10-27T07:20:20.156Z,974.3
2017-10-27T07:21:21.819Z,974.3
2017-10-27T07:22:23.489Z,974.3
2017-10-27T07:23:25.146Z,974.3
2017-10-27T07:24:26.800Z,974.3
2017-10-27T07:25:28.460Z,974.3
2017-10-27T07:26:30.154Z,974.3
2017-10-27T07:27:31.870Z,974.4
2017-10-27T07:28:33.524Z,974.3
2017-10-27T07:29:35.182Z,974.4
2017-10-27T07:30:36.848Z,974.3
2017-10-27T07:31:38.527Z,974.4
2017-10-27T07:32:40.190Z,974.4
2017-10-27T07:33:41.851Z,974.3
2017-10-27T07:34:43.512Z,974.3
2017-10-27T07:35:45.198Z,974.4
2017-10-27T07:36:46.865Z,974.5
2017-10-27T07:37:48.524Z,974.4
2017-10-27T07:38:50.192Z,974.4
2017-10-27T07:39:51.891Z,974.4
2017-10-27T07:40:53.551Z,974.4
2017-10-27T07:41:55.234Z,974.3
2017-10-27T07:42:56.895Z,974.4
2017-10-27T07:43:58.558Z,974.3
2017-10-27T07:45:00.224Z,974.5
2017-10-27T07:46:01.894Z,974.5
2017-10-27T07:47:03.508Z,974.5
2017-10-27T07:48:05.171Z,974.5
2017-10-27T07:49:06.873Z,974.5
2017-10-27T07:50:08.536Z,974.5
2017-10-27T07:51:10.198Z,974.5
2017-10-27T07:52:11.859Z,974.6
2017-10-27T07:53:13.520Z,974.6
2017-10-27T07:54:15.184Z,974.5
2017-10-27T07:55:16.842Z,974.6
2017-10-27T07:56:18.527Z,974.6
2017-10-27T07:57:20.193Z,974.6
2017-10-27T07:58:21.852Z,974.6
2017-10-27T07:59:23.535Z,974.6
2017-10-27T08:00:25.172Z,974.6
2017-10-27T08:01:26.834Z,974.6
2017-10-27T08:02:28.491Z,974.6
2017-10-27T08:03:30.152Z,974.6
2017-10-27T08:04:31.836Z,974.7
2017-10-27T08:05:33.493Z,974.7
2017-10-27T08:06:35.165Z,974.8
2017-10-27T08:07:36.815Z,974.8
2017-10-27T08:08:38.472Z,974.8
2017-10-27T08:09:40.135Z,974.8
2017-10-27T08:10:41.829Z,974.9
2017-10-27T08:11:43.500Z,974.8
2017-10-27T08:12:45.174Z,974.9
2017-10-27T08:13:46.830Z,974.9
2017-10-27T08:14:48.502Z,974.8
2017-10-27T08:15:50.163Z,974.8
2017-10-27T08:16:51.825Z,974.9
2017-10-27T08:17:53.501Z,974.9
2017-10-27T08:18:55.233Z,974.9
2017-10-27T08:19:56.894Z,974.9
2017-10-27T08:20:58.645Z,974.8
2017-10-27T08:22:00.318Z,974.9
2017-10-27T08:23:01.984Z,975.1
2017-10-27T08:24:03.649Z,975.2
2017-10-27T08:25:05.310Z,975.1
2017-10-27T08:26:06.972Z,975.1
2017-10-27T08:27:08.633Z,975.1
2017-10-27T08:28:10.289Z,975.1
2017-10-27T08:29:11.942Z,975.1
2017-10-27T08:30:13.639Z,975.3
2017-10-27T08:31:15.296Z,975.2
2017-10-27T08:32:16.954Z,975.3
2017-10-27T08:33:18.646Z,975.3
2017-10-27T08:34:20.308Z,975.3
2017-10-27T08:35:21.969Z,975.2
2017-10-27T08:36:23.637Z,975.3
2017-10-27T08:37:25.310Z,975.3
2017-10-27T08:38:26.976Z,975.4
2017-10-27T08:39:28.641Z,975.5
2017-10-27T08:40:30.312Z,975.4
2017-10-27T08:41:31.975Z,975.5
2017-10-27T08:42:33.650Z,975.4
2017-10-27T08:43:35.314Z,975.4
2017-10-27T08:44:36.980Z,975.6
2017-10-27T08:45:38.648Z,975.6
2017-10-27T08:46:40.312Z,975.5
2017-10-27T08:47:41.971Z,975.6
2017-10-27T08:48:43.646Z,975.6
2017-10-27T08:49:45.410Z,975.6
2017-10-27T08:50:47.068Z,975.6
2017-10-27T08:51:48.728Z,975.6
2017-10-27T08:52:50.425Z,975.6
2017-10-27T08:53:52.128Z,975.6
2017-10-27T08:54:53.802Z,975.5
2017-10-27T08:55:55.452Z,975.5
2017-10-27T08:56:57.140Z,975.5
2017-10-27T08:57:58.809Z,975.7
2017-10-27T08:59:00.500Z,975.7
2017-10-27T09:00:02.189Z,975.6
2017-10-27T09:01:03.779Z,975.8
2017-10-27T09:02:05.459Z,975.8
2017-10-27T09:03:07.153Z,975.7
2017-10-27T09:04:08.825Z,975.7
2017-10-27T09:05:10.497Z,975.8
2017-10-27T09:06:12.173Z,975.7
2017-10-27T09:07:13.831Z,975.6
2017-10-27T09:08:15.506Z,975.7
2017-10-27T09:09:17.166Z,975.7
2017-10-27T09:10:18.844Z,975.7
2017-10-27T09:11:20.494Z,975.8
2017-10-27T09:12:22.155Z,975.8
2017-10-27T09:13:23.821Z,975.8
2017-10-27T09:14:25.477Z,975.8
2017-10-27T09:15:27.144Z,975.8
2017-10-27T09:16:28.819Z,975.9
2017-10-27T09:17:30.507Z,975.9
2017-10-27T09:18:32.178Z,975.9
2017-10-27T09:19:33.853Z,975.9
2017-10-27T09:20:35.516Z,975.9
2017-10-27T09:21:37.198Z,975.9
2017-10-27T09:22:38.864Z,975.9
2017-10-27T09:23:40.532Z,976.1
2017-10-27T09:24:42.226Z,975.9
2017-10-27T09:25:43.932Z,975.9
2017-10-27T09:26:45.599Z,975.8
2017-10-27T09:27:47.274Z,975.8
2017-10-27T09:28:48.946Z,975.8
2017-10-27T09:29:50.680Z,975.9
2017-10-27T09:30:52.279Z,976.0
2017-10-27T09:31:53.945Z,976.0
2017-10-27T09:32:55.616Z,976.0
2017-10-27T09:33:57.284Z,976.0
2017-10-27T09:34:58.961Z,976.0
2017-10-27T09:36:00.651Z,976.0
2017-10-27T09:37:02.302Z,976.0
2017-10-27T09:38:03.961Z,976.0
2017-10-27T09:39:05.736Z,976.0
2017-10-27T09:40:07.403Z,976.1
2017-10-27T09:41:09.081Z,976.1
2017-10-27T09:42:10.752Z,976.2
2017-10-27T09:43:12.429Z,976.2
2017-10-27T09:44:14.109Z,976.2
2017-10-27T09:45:15.781Z,976.2
2017-10-27T09:46:17.442Z,976.2
2017-10-27T09:47:19.114Z,976.2
2017-10-27T09:48:20.785Z,976.2
2017-10-27T09:49:22.460Z,976.2
2017-10-27T09:50:24.126Z,976.3
2017-10-27T09:51:25.792Z,976.3
2017-10-27T09:52:27.471Z,976.3
2017-10-27T09:53:29.137Z,976.3
2017-10-27T09:54:32.171Z,976.3
2017-10-27T09:55:33.837Z,976.4
2017-10-27T10:02:00.994Z,976.7
2017-10-27T10:03:02.653Z,976.6
2017-10-27T10:04:04.353Z,976.7
2017-10-27T10:05:06.020Z,976.6
2017-10-27T10:06:07.687Z,976.7
2017-10-27T10:07:09.381Z,976.7
2017-10-27T10:08:11.059Z,976.8
2017-10-27T10:09:12.721Z,976.7
2017-10-27T10:10:14.395Z,976.7
2017-10-27T10:11:16.055Z,976.7
2017-10-27T10:12:17.735Z,976.8
2017-10-27T10:13:19.405Z,976.8
2017-10-27T10:14:21.072Z,976.9
2017-10-27T10:15:22.761Z,976.9
2017-10-27T10:16:24.807Z,976.9
2017-10-27T10:17:26.490Z,976.9
2017-10-27T10:18:28.159Z,976.8
2017-10-27T10:19:29.846Z,976.9
2017-10-27T10:20:31.540Z,977.2
2017-10-27T10:21:33.200Z,977.2
2017-10-27T10:22:34.869Z,977.2
2017-10-27T10:23:36.535Z,977.3
2017-10-27T10:24:38.208Z,977.3
2017-10-27T10:25:39.873Z,977.3
2017-10-27T10:26:41.551Z,977.3
2017-10-27T10:27:43.227Z,977.2
2017-10-27T10:28:44.902Z,977.1
2017-10-27T10:29:46.579Z,977.2
2017-10-27T10:30:48.266Z,977.3
2017-10-27T10:31:49.961Z,977.2
2017-10-27T10:32:51.639Z,977.1
2017-10-27T10:33:53.314Z,977.1
2017-10-27T10:34:54.974Z,977.2
2017-10-27T10:35:56.642Z,977.1
2017-10-27T10:36:58.305Z,977.1
2017-10-27T10:37:59.983Z,977.3
2017-10-27T10:39:01.647Z,977.1
2017-10-27T10:40:03.326Z,977.2
2017-10-27T10:41:04.985Z,977.1
2017-10-27T10:42:06.652Z,977.1
2017-10-27T10:43:08.335Z,977.1
2017-10-27T10:44:10.009Z,977.1
2017-10-27T10:45:11.680Z,977.1
2017-10-27T10:46:13.350Z,977.1
2017-10-27T10:47:15.019Z,977.1
2017-10-27T10:48:16.692Z,977.1
2017-10-27T10:49:18.351Z,977.1
2017-10-27T10:50:20.018Z,977.1
2017-10-27T10:51:21.706Z,977.1
2017-10-27T10:52:23.381Z,977.0
2017-10-27T10:53:25.043Z,977.1
2017-10-27T10:54:26.713Z,977.1
2017-10-27T10:55:28.404Z,977.2
2017-10-27T10:56:30.089Z,977.2
2017-10-27T10:57:31.762Z,977.3
2017-10-27T10:58:33.451Z,977.2
2017-10-27T10:59:35.128Z,977.1
2017-10-27T11:00:36.792Z,977.2
2017-10-27T11:01:38.485Z,977.2
2017-10-27T11:02:40.205Z,977.6
2017-10-27T11:03:41.876Z,977.4
2017-10-27T11:04:43.536Z,977.3
2017-10-27T11:05:45.237Z,977.2
2017-10-27T11:06:46.904Z,977.2
2017-10-27T11:07:48.576Z,977.2
2017-10-27T11:08:50.248Z,977.2
2017-10-27T11:09:51.961Z,977.2
2017-10-27T11:10:54.602Z,977.4
2017-10-27T11:11:56.276Z,977.3
2017-10-27T11:12:57.943Z,977.3
2017-10-27T11:13:59.614Z,977.2
2017-10-27T11:15:01.278Z,977.3
2017-10-27T11:16:02.944Z,977.4
2017-10-27T11:17:04.617Z,977.5
2017-10-27T11:18:19.038Z,977.6
2017-10-27T11:19:20.635Z,977.3
2017-10-27T11:20:22.367Z,977.3
2017-10-27T11:21:24.051Z,977.4
2017-10-27T11:22:25.743Z,977.6
2017-10-27T11:23:27.448Z,977.6
2017-10-27T11:24:30.507Z,977.5
2017-10-27T11:25:33.949Z,977.3
2017-10-27T11:26:35.628Z,977.4
2017-10-27T11:27:37.862Z,977.3
2017-10-27T11:28:39.594Z,977.4
2017-10-27T11:29:41.350Z,977.5
2017-10-27T11:30:44.547Z,977.7
2017-10-27T11:31:47.753Z,977.6
2017-10-27T11:32:50.806Z,977.6
2017-10-27T11:33:54.090Z,977.6
2017-10-27T11:34:57.195Z,977.6
2017-10-27T11:36:00.607Z,977.6
2017-10-27T11:37:04.226Z,977.6
2017-10-27T11:38:07.271Z,977.5
2017-10-27T11:39:10.168Z,977.5
2017-10-27T11:40:13.763Z,977.6
2017-10-27T11:41:16.536Z,977.6
2017-10-27T11:42:19.733Z,977.5
2017-10-27T11:43:22.386Z,977.5
2017-10-27T11:44:33.756Z,977.4
2017-10-27T11:45:36.641Z,977.4
2017-10-27T11:46:39.960Z,977.4
2017-10-27T11:47:43.523Z,977.4
2017-10-27T11:48:46.976Z,977.5
2017-10-27T11:49:50.373Z,977.5
2017-10-27T11:50:53.177Z,977.5
2017-10-27T11:51:56.022Z,977.5
2017-10-27T11:52:59.300Z,977.5
2017-10-27T11:54:02.485Z,977.5
2017-10-27T11:55:05.367Z,977.5
2017-10-27T11:56:08.629Z,977.5
2017-10-27T11:57:11.788Z,977.5
2017-10-27T11:58:14.853Z,977.5
2017-10-27T11:59:18.564Z,977.4
2017-10-27T12:00:23.469Z,977.5
2017-10-27T12:01:26.110Z,977.6
2017-10-27T12:02:30.323Z,977.6
2017-10-27T12:03:33.271Z,977.6
2017-10-27T12:04:36.067Z,977.6
2017-10-27T12:05:38.610Z,977.6
2017-10-27T12:06:41.357Z,977.6
2017-10-27T12:07:44.304Z,977.7
2017-10-27T12:08:46.881Z,977.6
2017-10-27T12:09:50.944Z,977.6
2017-10-27T12:10:53.865Z,977.6
2017-10-27T12:11:56.375Z,977.4
2017-10-27T12:12:58.088Z,977.6
2017-10-27T12:13:59.836Z,977.7
2017-10-27T12:15:01.543Z,977.6
2017-10-27T12:16:03.305Z,977.6
2017-10-27T12:17:05.061Z,977.7
2017-10-27T12:18:06.762Z,977.6
2017-10-27T12:19:08.460Z,977.6
2017-10-27T12:20:10.164Z,977.6
2017-10-27T12:21:11.839Z,977.6
2017-10-27T12:22:13.599Z,977.6
2017-10-27T12:23:15.293Z,977.6
2017-10-27T12:24:16.971Z,977.6
2017-10-27T12:25:18.687Z,977.7
2017-10-27T12:26:20.368Z,977.8
2017-10-27T12:27:22.053Z,977.7
2017-10-27T12:28:23.795Z,977.7
2017-10-27T12:29:25.501Z,977.6
2017-10-27T12:30:27.231Z,977.7
2017-10-27T12:31:28.930Z,977.7
2017-10-27T12:32:30.688Z,977.7
2017-10-27T12:33:32.481Z,977.6
2017-10-27T12:34:34.183Z,977.6
2017-10-27T12:35:35.982Z,977.6
2017-10-27T12:36:37.690Z,977.7
2017-10-27T12:37:39.452Z,977.7
2017-10-27T12:38:41.158Z,977.7
2017-10-27T12:39:42.967Z,977.6
2017-10-27T12:40:44.666Z,977.6
2017-10-27T12:41:46.397Z,977.6
2017-10-27T12:42:48.093Z,977.7
2017-10-27T12:43:49.871Z,977.7
2017-10-27T12:44:51.566Z,977.7
2017-10-27T12:45:53.244Z,977.7
2017-10-27T12:46:54.942Z,977.6
2017-10-27T12:47:56.691Z,977.6
2017-10-27T12:48:58.364Z,977.6
2017-10-27T12:50:00.094Z,977.7
2017-10-27T12:51:03.202Z,977.7
2017-10-27T12:52:06.718Z,977.8
2017-10-27T12:53:08.389Z,977.8
2017-10-27T12:54:10.132Z,977.8
2017-10-27T12:55:11.849Z,977.8
2017-10-27T12:56:13.544Z,977.8
2017-10-27T12:57:15.312Z,977.7
2017-10-27T12:58:17.001Z,977.8
2017-10-27T12:59:18.770Z,978.0
2017-10-27T13:00:20.527Z,978.0
2017-10-27T13:01:22.277Z,977.9
2017-10-27T13:02:24.081Z,977.9
2017-10-27T13:03:25.853Z,977.8
2017-10-27T13:04:27.579Z,977.9
2017-10-27T13:05:29.294Z,977.8
2017-10-27T13:06:31.086Z,977.9
2017-10-27T13:07:32.890Z,977.8
2017-10-27T13:08:34.579Z,977.9
2017-10-27T13:09:36.241Z,977.8
2017-10-27T13:10:37.939Z,977.9
2017-10-27T13:11:39.657Z,977.9
2017-10-27T13:12:41.321Z,977.9
2017-10-27T13:13:43.051Z,977.9
2017-10-27T13:14:44.717Z,977.9
2017-10-27T13:15:46.372Z,977.9
2017-10-27T13:16:48.121Z,978.0
2017-10-27T13:17:49.844Z,977.9
2017-10-27T13:18:51.616Z,977.9
2017-10-27T13:19:53.502Z,977.9
2017-10-27T13:20:55.362Z,978.0
2017-10-27T13:21:57.041Z,978.0
2017-10-27T13:22:58.745Z,978.0
2017-10-27T13:24:00.472Z,978.0
2017-10-27T13:25:02.187Z,978.0
2017-10-27T13:26:03.895Z,978.1
2017-10-27T13:27:05.568Z,978.0
2017-10-27T13:28:07.232Z,978.0
2017-10-27T13:29:08.910Z,978.1
2017-10-27T13:30:10.587Z,978.1
2017-10-27T13:31:12.256Z,978.2